Time;durP1;ratioP1;P1;durP2;ratioP2;P2;SDS_P1;SDS_P2;PMS_P1;PMS_P2;Temp;Humidity;BMP_temperature;BMP_pressure;BME280_temperature;BME280_humidity;BME280_pressure;Samples;Min_cycle;Max_cycle;Signal;HPM_P1;HPM_P2
2023/10/13 00:01:04;;;;;;;13.82;6.80;;;;;;;18.20;100.00;99737.78;12179145;19;20014;-80
2023/10/13 00:05:08;;;;;;;16.38;6.82;;;;;;;18.28;100.00;99747.41;12155401;19;20010;-81
2023/10/13 00:09:14;;;;;;;13.95;6.57;;;;;;;18.34;100.00;99740.63;12180867;19;20020;-79
2023/10/13 00:13:18;;;;;;;15.55;6.45;;;;;;;18.43;100.00;99744.38;12178070;19;20786;-78
2023/10/13 00:17:24;;;;;;;11.65;6.32;;;;;;;18.45;100.00;99742.13;12184303;19;19998;-78
2023/10/13 00:21:32;;;;;;;13.32;5.95;;;;;;;18.49;100.00;99739.56;12206122;19;20048;-79
2023/10/13 00:25:49;;;;;;;15.07;6.32;;;;;;;18.53;100.00;99740.63;12173901;19;20010;-80
2023/10/13 00:30:04;;;;;;;14.40;6.55;;;;;;;18.53;100.00;99745.34;12193153;19;20017;-79
2023/10/13 00:38:39;;;;;;;12.02;5.82;;;;;;;18.54;100.00;99733.06;12176873;19;20010;-78
2023/10/13 00:42:51;;;;;;;13.63;6.20;;;;;;;18.52;100.00;99725.00;12192802;19;20358;-79
2023/10/13 00:46:56;;;;;;;13.82;6.78;;;;;;;18.49;100.00;99730.34;12170667;19;20454;-79
2023/10/13 00:51:18;;;;;;;15.77;7.18;;;;;;;18.49;100.00;99724.78;12208414;19;20038;-80
2023/10/13 00:55:22;;;;;;;14.88;6.43;;;;;;;18.45;100.00;99719.81;12202711;19;20011;-79
2023/10/13 00:59:25;;;;;;;16.52;6.78;;;;;;;18.42;100.00;99703.69;12168412;19;20381;-79
2023/10/13 01:03:27;;;;;;;13.35;6.50;;;;;;;18.40;100.00;99702.31;12187518;19;20019;-79
2023/10/13 01:07:29;;;;;;;14.47;6.40;;;;;;;18.39;100.00;99709.03;12165883;19;20585;-77
2023/10/13 01:11:31;;;;;;;18.37;6.53;;;;;;;18.40;100.00;99705.09;12186343;19;21155;-79
2023/10/13 01:15:33;;;;;;;19.60;6.35;;;;;;;18.41;100.00;99698.38;12180921;19;20002;-79
2023/10/13 01:19:43;;;;;;;14.70;6.43;;;;;;;18.42;100.00;99697.28;12163377;19;20020;-79
2023/10/13 01:23:46;;;;;;;12.18;5.93;;;;;;;18.44;100.00;99695.00;12184990;19;21155;-78
2023/10/13 01:27:48;;;;;;;14.38;6.18;;;;;;;18.47;100.00;99676.81;12189826;19;21326;-79
2023/10/13 01:31:50;;;;;;;17.63;5.90;;;;;;;18.49;100.00;99682.94;12166899;19;20014;-80
2023/10/13 01:35:55;;;;;;;12.30;6.40;;;;;;;18.50;100.00;99671.47;12199811;19;20017;-78
2023/10/13 01:39:56;;;;;;;12.50;6.78;;;;;;;18.53;100.00;99679.22;12236109;19;20050;-77
2023/10/13 01:43:58;;;;;;;14.13;6.35;;;;;;;18.53;100.00;99673.66;12214330;19;20356;-78
2023/10/13 01:48:01;;;;;;;19.40;6.20;;;;;;;18.56;100.00;99669.41;12239440;19;19999;-78
2023/10/13 01:52:04;;;;;;;15.13;5.95;;;;;;;18.63;100.00;99664.25;12240007;19;20018;-78
2023/10/13 01:56:10;;;;;;;17.15;5.80;;;;;;;18.71;100.00;99671.09;12226261;19;19995;-78
2023/10/13 02:00:20;;;;;;;15.52;6.53;;;;;;;18.83;100.00;99663.91;12249567;19;20003;-78
2023/10/13 02:04:22;;;;;;;13.07;6.40;;;;;;;18.89;100.00;99667.44;12250460;19;19998;-78
2023/10/13 02:08:24;;;;;;;13.18;7.18;;;;;;;18.96;100.00;99661.44;12226083;19;20050;-78
2023/10/13 02:12:36;;;;;;;11.75;6.03;;;;;;;18.96;100.00;99653.88;12215845;19;21048;-80
2023/10/13 02:16:39;;;;;;;12.40;7.60;;;;;;;19.01;100.00;99639.00;12191825;19;20021;-80
2023/10/13 02:20:43;;;;;;;15.13;6.80;;;;;;;19.03;100.00;99642.31;12212099;19;20010;-80
2023/10/13 02:24:46;;;;;;;14.60;6.47;;;;;;;18.98;100.00;99626.50;12208706;19;20015;-80
2023/10/13 02:28:53;;;;;;;14.63;7.15;;;;;;;18.89;100.00;99622.78;12184411;19;20035;-78
2023/10/13 02:32:57;;;;;;;13.65;6.82;;;;;;;18.79;100.00;99626.56;12200876;19;20010;-79
2023/10/13 02:36:59;;;;;;;;;;;;;;;18.72;100.00;99623.34;12221631;19;20587;-80
2023/10/13 02:41:07;;;;;;;15.45;7.03;;;;;;;18.73;100.00;99629.75;12184346;19;19919;-79
2023/10/13 02:45:12;;;;;;;18.92;6.85;;;;;;;18.70;100.00;99624.78;12206838;19;20006;-80
2023/10/13 02:49:19;;;;;;;12.88;6.75;;;;;;;18.68;100.00;99616.72;12213302;19;20017;-79
2023/10/13 02:53:21;;;;;;;16.60;6.80;;;;;;;18.66;100.00;99602.25;12191972;19;20109;-80
2023/10/13 02:57:23;;;;;;;14.63;6.85;;;;;;;18.59;100.00;99597.09;12214542;19;20021;-80
2023/10/13 03:01:28;;;;;;;12.88;6.28;;;;;;;18.48;100.00;99580.84;12220526;19;20014;-78
2023/10/13 03:05:35;;;;;;;18.88;7.20;;;;;;;18.48;100.00;99592.81;12192003;19;20046;-80
2023/10/13 03:09:37;;;;;;;13.90;7.10;;;;;;;18.39;100.00;99589.09;12217018;19;20075;-79
2023/10/13 03:13:44;;;;;;;14.00;7.17;;;;;;;18.37;100.00;99597.75;12189763;19;20009;-79
2023/10/13 03:17:47;;;;;;;14.63;6.20;;;;;;;18.38;100.00;99595.78;12211088;19;20500;-78
2023/10/13 03:21:54;;;;;;;13.52;6.30;;;;;;;18.43;100.00;99601.28;12203251;19;21137;-80
2023/10/13 03:25:56;;;;;;;12.98;6.88;;;;;;;18.49;100.00;99596.44;12185696;19;20580;-80
2023/10/13 03:30:00;;;;;;;13.53;6.30;;;;;;;18.55;100.00;99598.00;12202413;19;20011;-80
2023/10/13 03:34:09;;;;;;;16.27;6.43;;;;;;;18.64;100.00;99593.34;12200777;19;20006;-80
2023/10/13 03:38:17;;;;;;;17.83;7.93;;;;;;;18.65;100.00;99578.28;12180517;19;20566;-79
2023/10/13 03:42:18;;;;;;;14.40;6.28;;;;;;;18.68;100.00;99584.06;12203393;19;20819;-79
2023/10/13 03:46:21;;;;;;;17.33;6.60;;;;;;;18.67;100.00;99570.41;12207613;19;20078;-80
2023/10/13 03:50:31;;;;;;;15.23;6.45;;;;;;;18.72;100.00;99566.69;12184083;19;20493;-80
2023/10/13 03:54:34;;;;;;;16.13;6.28;;;;;;;18.72;100.00;99572.28;12205448;19;20037;-80
2023/10/13 03:58:39;;;;;;;17.13;6.57;;;;;;;18.74;100.00;99564.44;12187300;19;20011;-80
2023/10/13 04:02:46;;;;;;;15.38;6.85;;;;;;;18.70;100.00;99560.59;12207864;19;20082;-80
2023/10/13 04:06:59;;;;;;;9.63;6.03;;;;;;;18.65;100.00;99562.34;12214094;19;20029;-79
2023/10/13 04:15:27;;;;;;;17.17;7.68;;;;;;;18.69;100.00;99543.03;12206348;19;20004;-79
2023/10/13 04:19:29;;;;;;;14.15;5.82;;;;;;;18.77;100.00;99559.06;12181016;19;20029;-78
2023/10/13 04:24:08;;;;;;;17.10;5.63;;;;;;;18.87;100.00;99558.03;12198770;19;20018;-79
2023/10/13 04:27:54;;;;;;;11.55;5.78;;;;;;;18.94;100.00;99552.84;12204520;19;20010;-80
2023/10/13 04:32:00;;;;;;;13.00;5.65;;;;;;;18.95;100.00;99540.56;12170407;19;20010;-79
2023/10/13 04:40:35;;;;;;;15.80;6.47;;;;;;;19.05;100.00;99537.53;12196285;19;20002;-81
2023/10/13 04:44:52;;;;;;;11.95;5.40;;;;;;;19.09;100.00;99530.16;12211997;19;20017;-80
2023/10/13 04:49:00;;;;;;;13.18;6.05;;;;;;;19.10;100.00;99526.25;12206720;19;20017;-80
2023/10/13 04:53:02;;;;;;;12.57;5.85;;;;;;;19.23;100.00;99537.72;12172864;19;20901;-80
2023/10/13 05:05:53;;;;;;;8.07;4.43;;;;;;;19.34;100.00;99506.44;12183625;19;19999;-81
2023/10/13 05:44:56;;;;;;;13.83;4.63;;;;;;;19.32;100.00;99483.56;12181170;19;20016;-80
2023/10/13 06:31:49;;;;;;;14.20;5.65;;;;;;;20.11;100.00;99484.97;12155567;19;20488;-81
2023/10/13 06:35:50;;;;;;;14.60;5.38;;;;;;;20.17;100.00;99482.84;12159364;19;20366;-80
2023/10/13 06:40:03;;;;;;;8.93;4.60;;;;;;;20.26;100.00;99478.13;12196991;19;20015;-81
2023/10/13 06:44:11;;;;;;;9.23;3.90;;;;;;;20.37;100.00;99482.25;12176598;19;20010;-81
2023/10/13 06:48:18;;;;;;;13.43;4.43;;;;;;;20.53;100.00;99481.88;12199254;19;20030;-81
2023/10/13 06:52:29;;;;;;;14.63;3.90;;;;;;;20.66;100.00;99492.09;12198075;19;20023;-81
2023/10/13 06:56:31;;;;;;;15.95;4.03;;;;;;;20.91;100.00;99479.31;12179782;19;20014;-81
2023/10/13 07:00:34;;;;;;;12.07;4.65;;;;;;;21.05;99.11;99485.59;12197453;19;20023;-81
2023/10/13 07:04:40;;;;;;;14.63;4.38;;;;;;;21.14;95.86;99488.41;12182204;19;20002;-81
2023/10/13 07:08:49;;;;;;;12.80;4.28;;;;;;;21.21;92.74;99485.97;12202015;19;20026;-80
2023/10/13 07:12:55;;;;;;;12.32;5.13;;;;;;;21.20;90.57;99486.28;12202747;19;20029;-82
2023/10/13 07:17:02;;;;;;;16.25;5.00;;;;;;;21.17;89.62;99488.56;12183883;19;20390;-81
2023/10/13 07:21:09;;;;;;;16.10;4.63;;;;;;;;;;12200592;19;20374;-80
2023/10/13 07:25:23;;;;;;;14.68;4.50;;;;;;;21.07;88.44;99488.91;12202297;19;20010;-81
2023/10/13 07:29:26;;;;;;;11.25;4.38;;;;;;;20.98;86.94;99490.06;12180147;19;20002;-81
2023/10/13 07:33:31;;;;;;;12.40;4.77;;;;;;;20.97;87.27;99492.03;12196738;19;20074;-81
2023/10/13 07:37:33;;;;;;;12.07;3.95;;;;;;;20.92;85.46;99487.41;12183577;19;20031;-82
2023/10/13 07:41:37;;;;;;;17.33;5.27;;;;;;;20.94;84.26;99496.31;12206407;19;19998;-82
2023/10/13 07:45:41;;;;;;;6.70;4.10;;;;;;;20.90;80.17;99492.50;12199152;19;20582;-81
2023/10/13 07:49:43;;;;;;;12.93;4.30;;;;;;;20.87;81.10;99484.75;12181562;19;20129;-82
2023/10/13 07:53:49;;;;;;;14.15;5.07;;;;;;;20.91;79.95;99485.75;12199573;19;20033;-81
2023/10/13 07:57:54;;;;;;;10.65;4.60;;;;;;;20.95;79.85;99483.13;12196828;19;20015;-82
2023/10/13 08:02:12;;;;;;;7.28;4.00;;;;;;;21.03;76.89;99481.47;12161834;19;20010;-80
2023/10/13 08:10:29;;;;;;;10.32;4.20;;;;;;;21.44;74.57;99486.63;12185744;19;20019;-81
2023/10/13 08:14:33;;;;;;;10.93;5.20;;;;;;;21.67;72.46;99478.88;12168047;19;20006;-81
2023/10/13 08:18:41;;;;;;;11.15;4.57;;;;;;;21.98;72.67;99480.63;12213549;19;20005;-81
2023/10/13 08:22:47;;;;;;;10.10;4.88;;;;;;;22.19;71.44;99484.41;12184834;19;20045;-80
2023/10/13 08:31:25;;;;;;;13.45;4.38;;;;;;;22.33;68.90;99472.94;12210423;19;20003;-82
2023/10/13 08:35:34;;;;;;;13.93;4.18;;;;;;;22.49;67.44;99482.47;12201172;19;21251;-81
2023/10/13 08:44:05;;;;;;;12.65;4.50;;;;;;;22.82;65.02;99476.16;12178188;19;20006;-82
2023/10/13 08:48:12;;;;;;;11.90;4.40;;;;;;;23.18;63.43;99469.19;12194876;19;20006;-81
2023/10/13 08:56:47;;;;;;;10.77;4.35;;;;;;;24.21;60.77;99466.53;12162012;19;20023;-82
2023/10/13 09:01:11;;;;;;;9.23;4.75;;;;;;;24.63;57.92;99454.25;12191647;19;20010;-82
2023/10/13 09:13:53;;;;;;;9.85;5.10;;;;;;;25.12;56.66;99424.00;12179326;19;20009;-83
2023/10/13 09:18:12;;;;;;;12.50;4.55;;;;;;;25.14;54.61;99430.16;12178352;19;20017;-80
2023/10/13 09:22:35;;;;;;;8.40;4.70;;;;;;;24.89;55.33;99417.25;12180990;19;20014;-82
2023/10/13 09:26:38;;;;;;;9.85;5.00;;;;;;;24.87;56.71;99406.34;12185378;19;20099;-81
2023/10/13 09:30:56;;;;;;;8.88;4.65;;;;;;;24.74;55.59;99404.72;12199158;19;20002;-81
2023/10/13 09:35:02;;;;;;;11.20;4.30;;;;;;;24.72;54.88;99399.44;12169008;19;20078;-81
2023/10/13 09:39:29;;;;;;;9.27;4.65;;;;;;;24.78;54.89;99380.31;12190998;19;20021;-81
2023/10/13 09:43:33;;;;;;;9.70;4.53;;;;;;;24.79;54.79;99367.84;12178904;19;20011;-80
2023/10/13 09:47:40;;;;;;;12.25;4.95;;;;;;;24.90;54.06;99366.19;12212317;19;20015;-82
2023/10/13 09:51:45;;;;;;;14.73;5.22;;;;;;;25.02;54.31;99374.59;12205210;19;20010;-81
2023/10/13 09:55:49;;;;;;;9.45;5.18;;;;;;;25.23;53.85;99376.44;12172543;19;20019;-81
2023/10/13 10:00:05;;;;;;;8.15;4.63;;;;;;;25.63;54.11;99372.69;12191407;19;20035;-80
2023/10/13 10:04:18;;;;;;;13.32;4.97;;;;;;;25.68;53.13;99361.16;12190579;19;20002;-82
2023/10/13 10:08:33;;;;;;;12.60;5.07;;;;;;;25.51;53.23;99367.94;12176298;19;20031;-82
2023/10/13 10:12:50;;;;;;;10.07;4.32;;;;;;;25.06;52.52;99376.69;12203060;19;20526;-83
2023/10/13 10:17:07;;;;;;;7.60;4.18;;;;;;;24.77;53.71;99375.81;12181290;19;20023;-82
2023/10/13 10:21:11;;;;;;;9.75;4.40;;;;;;;24.60;54.18;99364.81;12212422;19;20046;-82
2023/10/13 10:25:25;;;;;;;11.15;4.25;;;;;;;24.74;54.03;99371.72;12208899;19;20015;-81
2023/10/13 10:29:27;;;;;;;8.45;4.18;;;;;;;24.78;52.86;99374.66;12188476;19;20025;-82
2023/10/13 10:33:33;;;;;;;9.40;4.15;;;;;;;24.82;52.10;99375.59;12205169;19;20006;-82
2023/10/13 10:37:39;;;;;;;7.63;4.28;;;;;;;25.21;51.94;99361.88;12186559;19;20015;-82
2023/10/13 10:41:45;;;;;;;10.30;5.10;;;;;;;25.52;51.69;99346.19;12207551;19;20051;-82
2023/10/13 10:45:50;;;;;;;9.10;4.50;;;;;;;25.74;49.38;99344.78;12208325;19;20955;-81
2023/10/13 10:49:52;;;;;;;14.77;4.57;;;;;;;25.66;49.64;99332.47;12185728;19;20041;-82
2023/10/13 10:53:56;;;;;;;12.35;4.32;;;;;;;25.42;50.49;99328.63;12201995;19;20027;-82
2023/10/13 10:58:01;;;;;;;9.07;4.82;;;;;;;25.18;49.95;99328.75;12202256;19;20020;-83
2023/10/13 11:02:03;;;;;;;10.52;4.28;;;;;;;25.10;49.41;99333.31;12178496;19;20125;-81
2023/10/13 11:06:14;;;;;;;7.15;3.45;;;;;;;25.31;49.65;99324.69;12197759;19;20085;-81
2023/10/13 11:10:29;;;;;;;8.35;4.03;;;;;;;25.60;48.65;99320.63;12208536;19;20010;-81
2023/10/13 11:14:32;;;;;;;10.05;4.10;;;;;;;26.01;47.36;99312.03;12178260;19;20013;-81
2023/10/13 11:18:40;;;;;;;11.45;4.63;;;;;;;26.27;46.16;99305.81;12206178;19;20027;-82
2023/10/13 11:22:49;;;;;;;10.05;4.15;;;;;;;26.29;46.97;99309.06;12176301;19;20020;-81
2023/10/13 11:26:54;;;;;;;14.35;4.32;;;;;;;26.53;45.68;99291.06;12199080;19;20023;-82
2023/10/13 11:31:07;;;;;;;9.60;3.90;;;;;;;26.88;45.44;99287.38;12199476;19;20007;-81
2023/10/13 11:35:24;;;;;;;10.63;3.78;;;;;;;27.26;44.95;99278.09;12172480;19;20011;-81
2023/10/13 11:39:33;;;;;;;9.93;4.93;;;;;;;27.73;43.10;99271.25;12201949;19;20671;-83
2023/10/13 11:47:59;;;;;;;7.15;3.97;;;;;;;28.82;41.01;99244.16;12187597;19;20030;-81
2023/10/13 11:52:09;;;;;;;11.02;4.80;;;;;;;29.11;40.88;99244.50;12202133;19;21382;-82
2023/10/13 11:56:11;;;;;;;9.40;4.55;;;;;;;29.56;39.57;99229.16;12181400;19;20006;-81
2023/10/13 12:00:26;;;;;;;;;;;;;;;29.67;39.31;99221.56;12198402;19;20023;-82
2023/10/13 12:08:53;;;;;;;11.50;4.80;;;;;;;29.82;37.13;99213.16;12191963;19;20039;-81
2023/10/13 12:12:55;;;;;;;9.45;4.68;;;;;;;29.49;37.19;99214.91;12186990;19;20484;-80
2023/10/13 12:17:04;;;;;;;7.45;4.82;;;;;;;29.58;37.78;99206.06;12169062;19;20662;-79
2023/10/13 12:21:12;;;;;;;11.93;5.07;;;;;;;29.22;37.92;99200.06;12190256;19;20037;-80
2023/10/13 12:25:18;;;;;;;7.03;4.10;;;;;;;29.89;37.09;99188.47;12189005;19;20006;-80
2023/10/13 12:29:28;;;;;;;9.27;4.60;;;;;;;30.52;36.67;99186.44;12175159;19;20071;-79
2023/10/13 12:33:40;;;;;;;5.77;4.53;;;;;;;30.68;36.26;99174.69;12185491;19;20080;-79
2023/10/13 12:50:43;;;;;;;9.60;5.30;;;;;;;29.41;37.93;99150.75;12155729;19;20462;-79
2023/10/13 12:58:59;;;;;;;10.27;5.60;;;;;;;29.43;38.11;99146.31;12181733;19;20023;-81
2023/10/13 13:03:00;;;;;;;9.13;4.75;;;;;;;29.34;37.70;99148.69;12195927;19;20006;-81
2023/10/13 13:07:04;;;;;;;10.55;4.80;;;;;;;28.99;38.43;99130.09;12192218;19;21681;-80
2023/10/13 13:11:06;;;;;;;8.57;4.63;;;;;;;28.79;38.33;99135.19;12167698;19;20567;-80
2023/10/13 13:15:09;;;;;;;7.40;4.90;;;;;;;28.86;38.54;99128.75;12186369;19;20794;-79
2023/10/13 13:19:14;;;;;;;12.95;5.45;;;;;;;29.12;38.63;99127.00;12186240;19;20501;-80
2023/10/13 13:23:16;;;;;;;8.43;4.20;;;;;;;29.19;38.40;99121.41;12162224;19;20014;-80
2023/10/13 13:27:22;;;;;;;11.65;4.60;;;;;;;28.96;38.26;99133.72;12191190;19;20013;-80
2023/10/13 13:31:26;;;;;;;11.30;4.65;;;;;;;28.71;38.58;99119.28;12193821;19;20082;-82
2023/10/13 13:35:33;;;;;;;11.23;4.40;;;;;;;28.67;38.65;99111.94;12168189;19;20122;-81
2023/10/13 13:39:43;;;;;;;9.68;4.50;;;;;;;28.60;38.75;99118.34;12186775;19;20101;-81
2023/10/13 13:47:53;;;;;;;10.00;4.28;;;;;;;28.27;39.20;99102.16;12186764;19;20011;-81
2023/10/13 13:51:56;;;;;;;7.28;3.72;;;;;;;28.09;39.98;99104.78;12195599;19;20025;-80
2023/10/13 13:56:02;;;;;;;;;;;;;;;27.86;39.47;99091.50;12183278;19;20007;-80
2023/10/13 14:00:06;;;;;;;10.60;4.20;;;;;;;27.93;39.53;99085.13;12201067;19;19926;-80
2023/10/13 14:04:10;;;;;;;8.57;4.38;;;;;;;27.97;39.25;99083.16;12200465;19;20018;-80
2023/10/13 14:08:14;;;;;;;12.10;4.35;;;;;;;27.86;39.04;99080.19;12179495;19;20010;-80
2023/10/13 14:12:41;;;;;;;10.05;4.63;;;;;;;27.80;39.73;99078.09;12228339;19;20061;-80
2023/10/13 14:16:49;;;;;;;18.58;5.78;;;;;;;27.70;39.36;99069.03;12174660;19;20011;-80
2023/10/13 14:20:52;;;;;;;14.82;4.55;;;;;;;27.61;39.81;99068.50;12223262;19;20439;-79
2023/10/13 14:24:55;;;;;;;8.63;3.95;;;;;;;27.48;40.47;99061.41;12172939;19;20017;-79
2023/10/13 14:29:09;;;;;;;12.70;4.93;;;;;;;27.46;40.29;99053.34;12192201;19;20014;-79
2023/10/13 14:33:12;;;;;;;14.38;4.30;;;;;;;27.43;41.36;99051.25;12172496;19;19999;-79
2023/10/13 14:37:21;;;;;;;6.95;4.60;;;;;;;27.38;41.68;99034.63;12193664;19;20397;-78
2023/10/13 14:41:22;;;;;;;8.93;4.18;;;;;;;27.56;41.02;99028.41;12170136;19;21400;-78
2023/10/13 14:45:24;;;;;;;9.57;4.53;;;;;;;27.62;40.47;99029.69;12190011;19;20015;-79
2023/10/13 14:49:26;;;;;;;;;;;;;;;27.44;40.55;99026.63;12191914;19;20011;-79
2023/10/13 14:53:29;;;;;;;8.95;4.13;;;;;;;27.22;41.08;99023.47;12169782;19;19922;-78
2023/10/13 14:57:37;;;;;;;11.10;4.78;;;;;;;27.02;41.23;99019.09;12189847;19;20023;-78
2023/10/13 15:01:41;;;;;;;7.95;4.47;;;;;;;26.91;40.95;99006.78;12196617;19;20011;-79
2023/10/13 15:05:43;;;;;;;7.78;4.35;;;;;;;26.77;40.90;99013.84;12176123;19;20366;-78
2023/10/13 15:09:45;;;;;;;12.23;4.35;;;;;;;26.81;40.86;99003.41;12199359;19;20832;-79
2023/10/13 15:13:52;;;;;;;10.63;4.32;;;;;;;26.90;40.91;98993.84;12203806;19;20469;-80
2023/10/13 15:17:55;;;;;;;11.90;4.00;;;;;;;26.87;40.63;98991.78;12184953;19;20559;-79
2023/10/13 15:21:59;;;;;;;8.65;3.97;;;;;;;26.86;39.79;98987.31;12201593;19;20037;-79
2023/10/13 15:26:09;;;;;;;11.18;3.47;;;;;;;26.85;40.07;98985.69;12206625;19;20016;-79
2023/10/13 15:30:23;;;;;;;7.50;4.20;;;;;;;26.82;40.35;98987.25;12176329;19;20062;-79
2023/10/13 15:34:28;;;;;;;7.72;3.72;;;;;;;26.71;40.11;98970.16;12198262;19;20006;-79
2023/10/13 15:38:31;;;;;;;7.80;4.03;;;;;;;26.46;40.73;98969.66;12173424;19;20022;-79
2023/10/13 15:42:33;;;;;;;9.48;3.63;;;;;;;26.16;40.61;98966.72;12203642;19;20003;-80
2023/10/13 15:46:35;;;;;;;10.07;4.30;;;;;;;25.94;41.33;98956.19;12197264;19;21707;-79
2023/10/13 15:50:57;;;;;;;12.52;4.00;;;;;;;25.71;41.45;98958.94;12163302;19;20007;-79
2023/10/13 15:54:59;;;;;;;;;;;;;;;25.58;41.13;98946.97;12188808;19;20003;-80
2023/10/13 15:59:02;;;;;;;8.83;4.07;;;;;;;25.43;41.25;98943.03;12190147;19;19923;-78
2023/10/13 16:03:10;;;;;;;9.27;3.85;;;;;;;25.34;41.61;98928.34;12173829;19;20023;-79
2023/10/13 16:07:13;;;;;;;9.52;4.10;;;;;;;25.28;41.38;98922.19;12193680;19;20013;-79
2023/10/13 16:11:17;;;;;;;6.78;3.13;;;;;;;25.25;41.33;98911.66;12205309;19;20010;-78
2023/10/13 16:15:21;;;;;;;9.77;4.35;;;;;;;25.24;41.37;98910.03;12166949;19;20018;-79
2023/10/13 16:19:23;;;;;;;7.95;3.55;;;;;;;25.24;41.25;98910.84;12190561;19;20038;-78
2023/10/13 16:23:27;;;;;;;8.55;4.15;;;;;;;25.23;41.39;98909.22;12164047;19;20010;-79
2023/10/13 16:27:30;;;;;;;11.23;3.53;;;;;;;25.17;41.42;98909.88;12190464;19;20014;-78
2023/10/13 16:31:32;;;;;;;8.38;3.42;;;;;;;25.08;41.27;98915.69;12190530;19;20007;-78
2023/10/13 16:35:34;;;;;;;9.90;3.63;;;;;;;25.01;41.38;98918.34;12172016;19;20014;-80
2023/10/13 16:39:39;;;;;;;5.50;3.07;;;;;;;24.96;41.83;98922.28;12194125;19;20003;-80
2023/10/13 16:43:41;;;;;;;11.18;3.75;;;;;;;24.90;41.51;98917.31;12190457;19;20025;-80
2023/10/13 16:47:43;;;;;;;6.57;3.30;;;;;;;24.81;41.72;98905.38;12176876;19;20018;-81
2023/10/13 16:51:45;;;;;;;10.38;3.60;;;;;;;24.73;42.11;98904.44;12195454;19;20010;-80
2023/10/13 16:55:47;;;;;;;11.38;3.90;;;;;;;24.65;42.26;98903.44;12195010;19;20011;-81
2023/10/13 16:59:49;;;;;;;10.38;3.33;;;;;;;24.55;42.24;98907.63;12180863;19;20003;-81
2023/10/13 17:03:51;;;;;;;11.23;4.67;;;;;;;24.45;42.66;98896.94;12207746;19;20013;-81
2023/10/13 17:07:53;;;;;;;7.93;3.53;;;;;;;24.34;42.82;98890.19;12201972;19;20292;-81
2023/10/13 17:11:55;;;;;;;7.43;3.60;;;;;;;24.26;43.09;98877.91;12184422;19;20010;-82
2023/10/13 17:15:59;;;;;;;11.00;4.10;;;;;;;24.22;42.78;98877.00;12204065;19;20002;-82
2023/10/13 17:20:05;;;;;;;13.95;3.75;;;;;;;24.15;42.63;98879.63;12183939;19;20014;-82
2023/10/13 17:24:07;;;;;;;16.63;3.58;;;;;;;24.21;41.83;98869.75;12197197;19;20023;-81
2023/10/13 17:28:15;;;;;;;13.10;3.90;;;;;;;24.33;41.55;98866.00;12198994;19;20082;-82
2023/10/13 17:32:22;;;;;;;10.82;3.08;;;;;;;24.44;40.73;98869.13;12177593;19;20481;-82
2023/10/13 17:37:03;;;;;;;7.68;3.08;;;;;;;24.70;39.98;98865.72;12196872;19;20007;-82
2023/10/13 17:41:39;;;;;;;11.15;3.42;;;;;;;24.85;39.64;98850.75;12174786;19;20003;-83
2023/10/13 17:45:51;;;;;;;8.90;3.25;;;;;;;24.93;39.02;98841.28;12197262;19;20025;-83
2023/10/13 17:49:53;;;;;;;9.13;2.97;;;;;;;25.00;38.74;98843.44;12178137;19;20026;-83
2023/10/13 17:53:57;;;;;;;7.68;3.05;;;;;;;25.06;37.57;98841.16;12187651;19;20268;-83
2023/10/13 17:58:02;;;;;;;8.52;4.22;;;;;;;25.30;36.74;98835.22;12196778;19;20030;-82
2023/10/13 18:02:04;;;;;;;8.15;2.63;;;;;;;25.34;36.31;98830.47;12173357;19;20019;-83
2023/10/13 18:06:10;;;;;;;8.73;3.00;;;;;;;25.55;35.58;98832.06;12202327;19;20010;-81
2023/10/13 18:10:30;;;;;;;8.05;3.22;;;;;;;25.64;35.56;98827.00;12165409;19;20232;-82
2023/10/13 18:14:40;;;;;;;11.13;2.80;;;;;;;25.59;34.72;98808.41;12183467;19;20007;-81
2023/10/13 18:19:20;;;;;;;10.50;3.40;;;;;;;25.65;34.66;98812.53;12188251;19;20816;-82
2023/10/13 18:23:24;;;;;;;7.53;2.50;;;;;;;25.62;34.50;98801.19;12164403;19;20029;-82
2023/10/13 18:27:27;;;;;;;6.95;2.92;;;;;;;25.64;33.93;98804.44;12191995;19;20397;-82
2023/10/13 18:31:42;;;;;;;6.25;2.45;;;;;;;25.65;33.49;98801.25;12176911;19;20062;-85
2023/10/13 18:35:45;;;;;;;5.00;2.50;;;;;;;25.76;33.79;98807.09;12188411;19;20063;-82
2023/10/13 18:39:47;;;;;;;5.35;2.60;;;;;;;25.67;33.28;98803.69;12196957;19;20743;-82
2023/10/13 18:43:51;;;;;;;10.13;3.42;;;;;;;25.60;33.26;98797.94;12179001;19;20510;-81
2023/10/13 18:47:55;;;;;;;6.97;3.30;;;;;;;25.55;33.21;98803.88;12203246;19;20364;-81
2023/10/13 18:51:57;;;;;;;5.72;2.67;;;;;;;25.50;33.70;98795.75;12204184;19;20501;-83
2023/10/13 18:56:13;;;;;;;7.28;2.88;;;;;;;25.45;34.01;98783.56;12171917;19;20525;-82
2023/10/13 19:00:22;;;;;;;6.45;3.28;;;;;;;25.33;33.73;98778.09;12199382;19;20038;-82
2023/10/13 19:04:24;;;;;;;7.13;2.75;;;;;;;25.27;33.65;98778.78;12182858;19;20006;-82
2023/10/13 19:08:29;;;;;;;9.18;2.72;;;;;;;25.15;33.83;98779.75;12202782;19;20095;-81
2023/10/13 19:12:31;;;;;;;8.80;2.78;;;;;;;25.03;33.89;98775.06;12200476;19;20013;-83
2023/10/13 19:16:35;;;;;;;5.43;2.78;;;;;;;24.99;33.81;98774.19;12179413;19;20481;-82
2023/10/13 19:20:39;;;;;;;7.75;2.58;;;;;;;24.94;33.47;98771.66;12198286;19;20006;-81
2023/10/13 19:24:45;;;;;;;7.07;2.85;;;;;;;24.89;33.59;98778.38;12199357;19;20003;-83
2023/10/13 19:28:48;;;;;;;9.35;3.13;;;;;;;24.84;33.71;98787.16;12179384;19;20812;-82
2023/10/13 19:32:50;;;;;;;5.80;2.75;;;;;;;24.78;34.04;98792.25;12196851;19;20027;-82
2023/10/13 19:37:02;;;;;;;6.20;2.65;;;;;;;24.69;34.28;98793.66;12197946;19;20006;-82
2023/10/13 19:41:16;;;;;;;6.63;2.42;;;;;;;24.62;34.58;98794.31;12173144;19;20021;-81
2023/10/13 19:45:18;;;;;;;7.70;2.47;;;;;;;24.57;34.53;98800.25;12190775;19;20072;-81
2023/10/13 19:49:20;;;;;;;6.10;2.90;;;;;;;24.48;34.47;98802.44;12173691;19;20066;-80
2023/10/13 19:53:22;;;;;;;5.85;2.60;;;;;;;24.41;34.87;98783.34;12198355;19;20003;-82
2023/10/13 19:57:26;;;;;;;7.05;3.42;;;;;;;24.35;34.93;98782.00;12184479;19;20090;-81
2023/10/13 20:01:32;;;;;;;7.18;3.47;;;;;;;24.32;35.02;98799.63;12176449;19;20006;-79
2023/10/13 20:05:35;;;;;;;8.77;3.38;;;;;;;24.27;34.96;98800.75;12202837;19;20006;-79
2023/10/13 20:09:37;;;;;;;6.28;2.83;;;;;;;24.25;35.43;98797.47;12213303;19;21557;-82
2023/10/13 20:13:39;;;;;;;9.00;3.33;;;;;;;24.17;35.46;98795.66;12183218;19;19999;-82
2023/10/13 20:17:42;;;;;;;4.97;2.38;;;;;;;24.11;35.51;98808.38;12201654;19;20033;-81
2023/10/13 20:21:47;;;;;;;5.00;2.20;;;;;;;24.03;35.61;98798.94;12201533;19;20007;-80
2023/10/13 20:25:51;;;;;;;;;;;;;;;23.96;35.57;98812.03;12177911;19;20021;-82
2023/10/13 20:29:54;;;;;;;6.95;3.10;;;;;;;23.92;35.95;98806.31;12192632;19;19922;-81
2023/10/13 20:33:56;;;;;;;6.15;2.60;;;;;;;23.92;35.86;98809.13;12194330;19;20011;-81
2023/10/13 20:37:58;;;;;;;8.37;2.57;;;;;;;23.91;35.94;98812.28;12169259;19;20006;-80
2023/10/13 20:42:04;;;;;;;6.50;2.88;;;;;;;23.85;36.27;98811.75;12193088;19;20003;-80
2023/10/13 20:46:06;;;;;;;6.28;2.80;;;;;;;23.83;35.86;98812.13;12195040;19;20003;-80
2023/10/13 20:50:10;;;;;;;5.93;2.67;;;;;;;23.80;36.46;98814.84;12172552;19;20006;-80
2023/10/13 20:54:13;;;;;;;10.23;2.90;;;;;;;23.70;36.59;98807.75;12188936;19;20026;-79
2023/10/13 20:58:17;;;;;;;8.05;3.03;;;;;;;23.65;36.63;98808.81;12192876;19;20408;-81
2023/10/13 21:02:22;;;;;;;6.28;2.65;;;;;;;23.64;36.56;98809.16;12175630;19;20019;-80
2023/10/13 21:06:24;;;;;;;6.45;2.67;;;;;;;23.59;36.89;98810.25;12193685;19;20014;-80
2023/10/13 21:10:26;;;;;;;9.02;3.55;;;;;;;23.62;37.13;98809.53;12170904;19;20304;-80
2023/10/13 21:14:27;;;;;;;7.75;3.08;;;;;;;23.58;37.39;98819.84;12186888;19;20355;-80
2023/10/13 21:18:30;;;;;;;5.90;3.03;;;;;;;23.56;37.32;98816.59;12190654;19;20034;-79
2023/10/13 21:22:36;;;;;;;8.65;2.85;;;;;;;23.53;37.50;98817.31;12168857;19;20263;-80
2023/10/13 21:26:38;;;;;;;7.25;3.05;;;;;;;23.51;37.90;98814.06;12192068;19;19998;-81
2023/10/13 21:30:40;;;;;;;8.02;3.00;;;;;;;23.48;37.96;98820.41;12193318;19;20003;-80